createdAt,value
2023-03-01T00:02:09.358Z,101599.91
2023-03-01T00:07:10.964Z,101598.63
2023-03-01T00:12:12.638Z,101598.91
2023-03-01T00:17:14.466Z,101591.72
2023-03-01T00:22:16.043Z,101595.06
2023-03-01T00:27:17.750Z,101598.94
2023-03-01T00:32:19.572Z,101591.03
2023-03-01T00:37:22.392Z,101601.00
2023-03-01T00:42:24.218Z,101583.78
2023-03-01T00:47:25.784Z,101587.75
2023-03-01T00:52:27.734Z,101573.28
2023-03-01T00:57:29.426Z,101569.47
2023-03-01T01:02:33.537Z,101574.03
2023-03-01T01:07:36.069Z,101575.69
2023-03-01T01:12:38.328Z,101571.00
2023-03-01T01:17:39.923Z,101570.78
2023-03-01T01:22:41.521Z,101567.13
2023-03-01T01:27:43.177Z,101565.38
2023-03-01T01:32:44.741Z,101552.94
2023-03-01T01:37:46.300Z,101553.97
2023-03-01T01:42:47.921Z,101549.19
2023-03-01T01:47:49.625Z,101544.72
2023-03-01T01:52:52.038Z,101551.19
2023-03-01T01:58:03.591Z,101546.91
2023-03-01T02:03:14.354Z,101549.34
2023-03-01T02:08:17.842Z,101539.78
2023-03-01T02:13:19.557Z,101543.66
2023-03-01T02:18:22.432Z,101524.34
2023-03-01T02:23:24.141Z,101525.31
2023-03-01T02:28:36.896Z,101515.00
2023-03-01T02:33:39.532Z,101508.75
2023-03-01T02:38:42.354Z,101517.25
2023-03-01T02:43:44.328Z,101509.84
2023-03-01T02:48:50.097Z,101510.16
2023-03-01T02:54:08.038Z,101502.34
2023-03-01T02:59:10.303Z,101497.81
2023-03-01T03:04:18.643Z,101497.16
2023-03-01T03:09:23.046Z,101497.97
2023-03-01T03:14:24.799Z,101496.50
2023-03-01T03:19:26.644Z,101498.34
2023-03-01T03:24:39.211Z,101493.09
2023-03-01T03:29:40.912Z,101486.38
2023-03-01T03:34:42.601Z,101492.16
2023-03-01T03:39:44.144Z,101487.91
2023-03-01T03:44:45.733Z,101478.47
2023-03-01T03:49:47.352Z,101476.22
2023-03-01T03:54:48.922Z,101468.00
2023-03-01T03:59:50.475Z,101479.13
2023-03-01T04:04:52.026Z,101485.91
2023-03-01T04:09:53.574Z,101489.75
2023-03-01T04:14:55.218Z,101500.91
2023-03-01T04:19:56.824Z,101495.16
2023-03-01T04:24:58.428Z,101485.84
2023-03-01T04:30:00.101Z,101486.31
2023-03-01T04:35:01.863Z,101480.50
2023-03-01T04:40:16.644Z,101488.94
2023-03-01T04:45:18.337Z,101481.94
2023-03-01T04:50:24.561Z,101477.66
2023-03-01T04:55:27.620Z,101484.78
2023-03-01T05:00:29.269Z,101491.47
2023-03-01T05:05:37.145Z,101480.53
2023-03-01T05:10:39.736Z,101479.38
2023-03-01T05:15:41.501Z,101476.38
2023-03-01T05:20:43.185Z,101482.06
2023-03-01T05:25:45.010Z,101474.19
2023-03-01T05:30:47.678Z,101468.84
2023-03-01T05:35:50.952Z,101471.75
2023-03-01T05:40:52.589Z,101462.09
2023-03-01T05:45:54.232Z,101465.16
2023-03-01T05:50:55.898Z,101461.91
2023-03-01T05:55:57.532Z,101466.31
2023-03-01T06:00:59.185Z,101474.25
2023-03-01T06:06:00.821Z,101479.03
2023-03-01T06:11:02.401Z,101480.56
2023-03-01T06:16:07.762Z,101477.41
2023-03-01T06:21:10.060Z,101477.44
2023-03-01T06:26:11.739Z,101478.28
2023-03-01T06:31:13.359Z,101488.53
2023-03-01T06:36:19.656Z,101495.06
2023-03-01T06:41:21.690Z,101494.22
2023-03-01T06:46:23.417Z,101499.34
2023-03-01T06:51:25.095Z,101494.75
2023-03-01T06:56:26.642Z,101498.28
2023-03-01T07:01:28.393Z,101494.56
2023-03-01T07:06:30.275Z,101480.03
2023-03-01T07:11:32.003Z,101492.25
2023-03-01T07:16:34.013Z,101489.81
2023-03-01T07:21:35.797Z,101484.88
2023-03-01T07:26:37.882Z,101479.00
2023-03-01T07:31:39.446Z,101472.66
2023-03-01T07:36:43.967Z,101476.97
2023-03-01T07:41:45.631Z,101469.84
2023-03-01T07:46:47.262Z,101469.94
2023-03-01T07:51:49.229Z,101467.22
2023-03-01T07:56:50.824Z,101471.31
2023-03-01T08:01:52.452Z,101461.66
2023-03-01T08:06:55.257Z,101459.38
2023-03-01T08:11:57.934Z,101440.19
2023-03-01T08:16:59.704Z,101447.06
2023-03-01T08:22:03.036Z,101437.56
2023-03-01T08:27:04.808Z,101439.22
2023-03-01T08:32:06.545Z,101436.53
2023-03-01T08:37:08.224Z,101434.84
2023-03-01T08:42:09.873Z,101432.44
2023-03-01T08:47:11.458Z,101431.00
2023-03-01T08:52:13.132Z,101429.66
2023-03-01T08:57:14.803Z,101444.91
2023-03-01T09:02:18.900Z,101427.13
2023-03-01T09:07:20.511Z,101426.78
2023-03-01T09:12:22.413Z,101426.34
2023-03-01T09:17:24.064Z,101411.53
2023-03-01T09:22:25.711Z,101399.38
2023-03-01T09:27:27.291Z,101381.19
2023-03-01T09:32:31.812Z,101384.50
2023-03-01T09:37:35.236Z,101383.09
2023-03-01T09:42:37.228Z,101389.75
2023-03-01T09:47:38.862Z,101392.28
2023-03-01T09:52:59.754Z,101380.91
2023-03-01T09:58:27.172Z,101376.13
2023-03-01T10:03:40.701Z,101382.78
2023-03-01T10:08:47.984Z,101372.88
2023-03-01T10:14:11.153Z,101382.41
2023-03-01T10:19:16.908Z,101372.94
2023-03-01T10:24:22.392Z,101373.50
2023-03-01T10:29:35.741Z,101366.97
2023-03-01T10:34:37.915Z,101369.06
2023-03-01T10:39:59.061Z,101367.91
2023-03-01T10:45:18.619Z,101359.78
2023-03-01T10:50:24.347Z,101351.28
2023-03-01T10:55:37.399Z,101345.72
2023-03-01T11:00:49.501Z,101333.53
2023-03-01T11:05:56.368Z,101324.78
2023-03-01T11:11:13.829Z,101322.78
2023-03-01T11:16:15.437Z,101319.03
2023-03-01T11:21:17.345Z,101308.00
2023-03-01T11:26:19.649Z,101310.25
2023-03-01T11:31:22.900Z,101322.94
2023-03-01T11:36:39.816Z,101306.66
2023-03-01T11:41:42.445Z,101300.78
2023-03-01T11:46:54.228Z,101306.19
2023-03-01T11:52:04.737Z,101309.25
2023-03-01T11:57:49.457Z,101301.38
2023-03-01T12:03:20.092Z,101289.25
2023-03-01T12:08:34.895Z,101286.97
2023-03-01T12:13:55.296Z,101287.66
2023-03-01T12:19:15.127Z,101290.91
2023-03-01T12:24:22.820Z,101283.72
2023-03-01T12:29:35.887Z,101280.47
2023-03-01T12:35:02.680Z,101257.22
2023-03-01T12:40:25.407Z,101250.97
2023-03-01T12:45:49.126Z,101245.09
2023-03-01T12:50:54.294Z,101251.22
2023-03-01T12:55:59.602Z,101249.84
2023-03-01T13:01:04.560Z,101236.50
2023-03-01T13:06:18.907Z,101226.25
2023-03-01T13:11:22.650Z,101226.56
2023-03-01T13:16:30.801Z,101225.63
2023-03-01T13:21:32.845Z,101215.38
2023-03-01T13:27:14.656Z,101222.31
2023-03-01T13:32:43.123Z,101217.16
2023-03-01T13:37:45.993Z,101226.53
2023-03-01T13:43:04.259Z,101219.63
2023-03-01T13:48:27.205Z,101208.00
2023-03-01T13:53:32.380Z,101214.53
2023-03-01T13:58:49.258Z,101218.22
2023-03-01T14:03:51.020Z,101211.63
2023-03-01T14:09:03.090Z,101198.53
2023-03-01T14:14:13.360Z,101207.06
2023-03-01T14:19:32.597Z,101202.84
2023-03-01T14:24:36.518Z,101180.56
2023-03-01T14:29:39.442Z,101184.75
2023-03-01T14:34:46.480Z,101189.09
2023-03-01T14:39:48.792Z,101183.91
2023-03-01T14:44:52.286Z,101174.91
2023-03-01T14:50:08.577Z,101170.16
2023-03-01T14:55:22.113Z,101149.72
2023-03-01T15:00:29.356Z,101153.22
2023-03-01T15:05:32.715Z,101148.19
2023-03-01T15:10:36.987Z,101159.94
2023-03-01T15:15:47.506Z,101165.06
2023-03-01T15:20:50.315Z,101150.06
2023-03-01T15:26:00.245Z,101143.63
2023-03-01T15:31:19.036Z,101144.03
2023-03-01T15:36:39.231Z,101152.56
2023-03-01T15:41:49.176Z,101146.00
2023-03-01T15:46:50.779Z,101133.41
2023-03-01T15:51:55.753Z,101134.91
2023-03-01T15:56:57.380Z,101124.03
2023-03-01T16:01:59.038Z,101123.91
2023-03-01T16:07:00.651Z,101119.09
2023-03-01T16:12:02.686Z,101122.03
2023-03-01T16:17:04.263Z,101121.09
2023-03-01T16:22:06.136Z,101124.59
2023-03-01T16:27:07.988Z,101136.69
2023-03-01T16:32:09.686Z,101140.69
2023-03-01T16:37:11.592Z,101143.53
2023-03-01T16:42:13.204Z,101142.19
2023-03-01T16:47:14.819Z,101138.16
2023-03-01T16:52:16.373Z,101140.22
2023-03-01T16:57:17.938Z,101134.53
2023-03-01T17:02:20.761Z,101145.13
2023-03-01T17:07:23.032Z,101140.22
2023-03-01T17:12:24.603Z,101137.38
2023-03-01T17:17:27.438Z,101136.41
2023-03-01T17:22:29.122Z,101143.31
2023-03-01T17:27:35.434Z,101146.59
2023-03-01T17:32:37.240Z,101148.47
2023-03-01T17:37:39.925Z,101164.06
2023-03-01T17:42:41.547Z,101167.25
2023-03-01T17:47:43.105Z,101167.84
2023-03-01T17:52:44.716Z,101165.13
2023-03-01T17:57:46.272Z,101167.88
2023-03-01T18:02:47.918Z,101171.41
2023-03-01T18:07:51.121Z,101168.34
2023-03-01T18:12:52.691Z,101164.47
2023-03-01T18:17:54.687Z,101164.75
2023-03-01T18:22:56.369Z,101180.81
2023-03-01T18:27:58.023Z,101165.28
2023-03-01T18:32:59.579Z,101162.63
2023-03-01T18:38:01.147Z,101153.66
2023-03-01T18:43:02.717Z,101156.06
2023-03-01T18:48:04.543Z,101150.94
2023-03-01T18:53:06.220Z,101163.06
2023-03-01T18:58:07.853Z,101165.75
2023-03-01T19:03:11.193Z,101161.06
2023-03-01T19:08:12.777Z,101148.81
2023-03-01T19:13:14.351Z,101141.75
2023-03-01T19:18:15.906Z,101157.91
2023-03-01T19:23:17.525Z,101161.16
2023-03-01T19:28:19.165Z,101159.25
2023-03-01T19:33:20.699Z,101158.56
2023-03-01T19:38:23.561Z,101159.75
2023-03-01T19:43:25.266Z,101150.53
2023-03-01T19:48:27.372Z,101145.41
2023-03-01T19:53:29.018Z,101140.75
2023-03-01T19:58:31.540Z,101154.78
2023-03-01T20:03:36.631Z,101161.53
2023-03-01T20:08:38.410Z,101156.19
2023-03-01T20:13:40.031Z,101157.91
2023-03-01T20:18:41.700Z,101156.06
2023-03-01T20:23:43.354Z,101153.53
2023-03-01T20:28:46.110Z,101153.53
2023-03-01T20:33:48.380Z,101136.53
2023-03-01T20:38:52.771Z,101143.91
2023-03-01T20:43:56.427Z,101139.41
2023-03-01T20:48:58.281Z,101137.69
2023-03-01T20:54:00.079Z,101134.28
2023-03-01T20:59:04.399Z,101131.66
2023-03-01T21:04:06.336Z,101131.25
2023-03-01T21:09:08.005Z,101142.59
2023-03-01T21:14:12.386Z,101140.88
2023-03-01T21:19:14.115Z,101129.53
2023-03-01T21:24:15.792Z,101124.28
2023-03-01T21:29:17.378Z,101119.44
2023-03-01T21:34:18.929Z,101115.00
2023-03-01T21:39:21.523Z,101125.09
2023-03-01T21:44:24.447Z,101125.88
2023-03-01T21:49:26.860Z,101128.81
2023-03-01T21:54:28.538Z,101116.06
2023-03-01T21:59:30.524Z,101117.47
2023-03-01T22:04:32.113Z,101105.03
2023-03-01T22:09:36.126Z,101097.13
2023-03-01T22:14:37.758Z,101093.16
2023-03-01T22:19:39.380Z,101089.59
2023-03-01T22:24:40.914Z,101087.31
2023-03-01T22:29:42.468Z,101090.38
2023-03-01T22:34:44.060Z,101103.19
2023-03-01T22:39:45.610Z,101099.41
2023-03-01T22:44:47.192Z,101094.53
2023-03-01T22:56:49.521Z,101094.00
2023-03-01T23:01:52.608Z,101086.50
2023-03-01T23:06:54.489Z,101085.88
2023-03-01T23:11:56.976Z,101088.47
2023-03-01T23:17:01.435Z,101104.59
2023-03-01T23:22:03.089Z,101102.06
2023-03-01T23:27:05.301Z,101104.06
2023-03-01T23:32:07.039Z,101099.00
2023-03-01T23:37:10.304Z,101090.03
2023-03-01T23:42:11.901Z,101094.31
2023-03-01T23:47:13.591Z,101101.47
2023-03-01T23:52:17.242Z,101099.03
2023-03-01T23:57:19.798Z,101091.22
